sensor_id;sensor_type;location;lat;lon;timestamp;temperature;humidity
8792;DHT22;4432;50.890;4.744;2022-09-30T00:00:59;5.70;99.90
8792;DHT22;4432;50.890;4.744;2022-09-30T00:03:25;5.70;99.90
8792;DHT22;4432;50.890;4.744;2022-09-30T00:06:05;5.70;99.90
8792;DHT22;4432;50.890;4.744;2022-09-30T00:08:31;5.60;99.90
8792;DHT22;4432;50.890;4.744;2022-09-30T00:11:01;5.60;99.90
8792;DHT22;4432;50.890;4.744;2022-09-30T00:13:32;5.60;99.90
8792;DHT22;4432;50.890;4.744;2022-09-30T00:15:58;5.60;99.90
8792;DHT22;4432;50.890;4.744;2022-09-30T00:18:25;5.60;99.90
8792;DHT22;4432;50.890;4.744;2022-09-30T00:20:51;5.60;99.90
8792;DHT22;4432;50.890;4.744;2022-09-30T00:23:18;5.60;99.90
8792;DHT22;4432;50.890;4.744;2022-09-30T00:25:44;5.50;99.90
8792;DHT22;4432;50.890;4.744;2022-09-30T00:28:10;5.60;99.90
8792;DHT22;4432;50.890;4.744;2022-09-30T00:30:35;5.50;99.90
8792;DHT22;4432;50.890;4.744;2022-09-30T00:33:01;5.50;99.90
8792;DHT22;4432;50.890;4.744;2022-09-30T00:35:27;5.50;99.90
8792;DHT22;4432;50.890;4.744;2022-09-30T00:37:53;5.50;99.90
8792;DHT22;4432;50.890;4.744;2022-09-30T00:40:20;5.40;99.90
8792;DHT22;4432;50.890;4.744;2022-09-30T00:42:45;5.40;99.90
8792;DHT22;4432;50.890;4.744;2022-09-30T00:45:12;5.40;99.90
8792;DHT22;4432;50.890;4.744;2022-09-30T00:48:07;5.40;99.90
8792;DHT22;4432;50.890;4.744;2022-09-30T00:50:42;5.40;99.90
8792;DHT22;4432;50.890;4.744;2022-09-30T00:53:33;5.30;99.90
8792;DHT22;4432;50.890;4.744;2022-09-30T00:58:44;5.30;99.90
8792;DHT22;4432;50.890;4.744;2022-09-30T01:01:11;5.30;99.90
8792;DHT22;4432;50.890;4.744;2022-09-30T01:03:40;5.30;99.90
8792;DHT22;4432;50.890;4.744;2022-09-30T01:06:07;5.30;99.90
8792;DHT22;4432;50.890;4.744;2022-09-30T01:08:36;5.20;99.90
8792;DHT22;4432;50.890;4.744;2022-09-30T01:11:02;5.20;99.90
8792;DHT22;4432;50.890;4.744;2022-09-30T01:13:30;5.20;99.90
8792;DHT22;4432;50.890;4.744;2022-09-30T01:27:39;5.00;99.90
8792;DHT22;4432;50.890;4.744;2022-09-30T01:30:42;5.10;99.90
8792;DHT22;4432;50.890;4.744;2022-09-30T01:33:30;5.00;99.90
8792;DHT22;4432;50.890;4.744;2022-09-30T01:47:32;4.90;99.90
8792;DHT22;4432;50.890;4.744;2022-09-30T01:52:45;4.90;99.90
8792;DHT22;4432;50.890;4.744;2022-09-30T01:57:56;4.80;99.90
8792;DHT22;4432;50.890;4.744;2022-09-30T02:00:22;4.80;99.90
8792;DHT22;4432;50.890;4.744;2022-09-30T02:02:57;4.80;99.90
8792;DHT22;4432;50.890;4.744;2022-09-30T02:08:15;4.80;99.90
8792;DHT22;4432;50.890;4.744;2022-09-30T02:10:51;4.80;99.90
8792;DHT22;4432;50.890;4.744;2022-09-30T02:13:21;4.80;99.90
8792;DHT22;4432;50.890;4.744;2022-09-30T02:15:55;4.70;99.90
8792;DHT22;4432;50.890;4.744;2022-09-30T02:18:46;4.70;99.90
8792;DHT22;4432;50.890;4.744;2022-09-30T02:21:17;4.70;99.90
8792;DHT22;4432;50.890;4.744;2022-09-30T02:23:45;4.70;99.90
8792;DHT22;4432;50.890;4.744;2022-09-30T02:26:22;4.70;99.90
8792;DHT22;4432;50.890;4.744;2022-09-30T02:28:53;4.60;99.90
8792;DHT22;4432;50.890;4.744;2022-09-30T02:31:22;4.60;99.90
8792;DHT22;4432;50.890;4.744;2022-09-30T02:33:52;4.60;99.90
8792;DHT22;4432;50.890;4.744;2022-09-30T02:36:40;4.60;99.90
8792;DHT22;4432;50.890;4.744;2022-09-30T02:42:11;4.60;99.90
8792;DHT22;4432;50.890;4.744;2022-09-30T02:44:38;4.60;99.90
8792;DHT22;4432;50.890;4.744;2022-09-30T02:47:08;4.60;99.90
8792;DHT22;4432;50.890;4.744;2022-09-30T02:49:58;4.60;99.90
8792;DHT22;4432;50.890;4.744;2022-09-30T02:53:25;4.60;99.90
8792;DHT22;4432;50.890;4.744;2022-09-30T02:58:09;4.60;99.90
8792;DHT22;4432;50.890;4.744;2022-09-30T03:00:36;4.50;99.90
8792;DHT22;4432;50.890;4.744;2022-09-30T03:03:15;4.50;99.90
8792;DHT22;4432;50.890;4.744;2022-09-30T03:05:43;4.40;99.90
8792;DHT22;4432;50.890;4.744;2022-09-30T03:08:10;4.40;99.90
8792;DHT22;4432;50.890;4.744;2022-09-30T03:10:35;4.40;99.90
8792;DHT22;4432;50.890;4.744;2022-09-30T03:18:54;4.30;99.90
8792;DHT22;4432;50.890;4.744;2022-09-30T03:32:32;4.30;99.90
8792;DHT22;4432;50.890;4.744;2022-09-30T03:35:10;4.20;99.90
8792;DHT22;4432;50.890;4.744;2022-09-30T03:40:42;4.30;99.90
8792;DHT22;4432;50.890;4.744;2022-09-30T03:45:52;4.20;99.90
8792;DHT22;4432;50.890;4.744;2022-09-30T03:48:21;4.20;99.90
8792;DHT22;4432;50.890;4.744;2022-09-30T03:50:48;4.20;99.90
8792;DHT22;4432;50.890;4.744;2022-09-30T03:53:14;4.20;99.90
8792;DHT22;4432;50.890;4.744;2022-09-30T03:55:49;4.20;99.90
8792;DHT22;4432;50.890;4.744;2022-09-30T03:58:17;4.20;99.90
8792;DHT22;4432;50.890;4.744;2022-09-30T04:00:51;4.10;99.90
8792;DHT22;4432;50.890;4.744;2022-09-30T04:03:18;4.10;99.90
8792;DHT22;4432;50.890;4.744;2022-09-30T04:05:45;4.10;99.90
8792;DHT22;4432;50.890;4.744;2022-09-30T04:08:11;4.10;99.90
8792;DHT22;4432;50.890;4.744;2022-09-30T04:10:39;4.10;99.90
8792;DHT22;4432;50.890;4.744;2022-09-30T04:13:06;4.10;99.90
8792;DHT22;4432;50.890;4.744;2022-09-30T04:15:33;4.10;99.90
8792;DHT22;4432;50.890;4.744;2022-09-30T04:17:58;4.10;99.90
8792;DHT22;4432;50.890;4.744;2022-09-30T04:20:24;4.10;99.90
8792;DHT22;4432;50.890;4.744;2022-09-30T04:22:50;4.10;99.90
8792;DHT22;4432;50.890;4.744;2022-09-30T04:25:16;4.10;99.90
8792;DHT22;4432;50.890;4.744;2022-09-30T04:27:42;4.10;99.90
8792;DHT22;4432;50.890;4.744;2022-09-30T04:30:08;4.10;99.90
8792;DHT22;4432;50.890;4.744;2022-09-30T04:32:33;4.00;99.90
8792;DHT22;4432;50.890;4.744;2022-09-30T04:34:59;4.10;99.90
8792;DHT22;4432;50.890;4.744;2022-09-30T04:37:25;4.00;99.90
8792;DHT22;4432;50.890;4.744;2022-09-30T04:39:50;4.10;99.90
8792;DHT22;4432;50.890;4.744;2022-09-30T04:42:16;4.00;99.90
8792;DHT22;4432;50.890;4.744;2022-09-30T04:44:43;4.00;99.90
8792;DHT22;4432;50.890;4.744;2022-09-30T04:47:09;4.00;99.90
8792;DHT22;4432;50.890;4.744;2022-09-30T04:49:35;4.10;99.90
8792;DHT22;4432;50.890;4.744;2022-09-30T04:52:00;4.00;99.90
8792;DHT22;4432;50.890;4.744;2022-09-30T04:54:26;4.00;99.90
8792;DHT22;4432;50.890;4.744;2022-09-30T04:56:52;3.90;99.90
8792;DHT22;4432;50.890;4.744;2022-09-30T04:59:18;3.90;99.90
8792;DHT22;4432;50.890;4.744;2022-09-30T05:01:43;4.00;99.90
8792;DHT22;4432;50.890;4.744;2022-09-30T05:04:09;3.90;99.90
8792;DHT22;4432;50.890;4.744;2022-09-30T05:06:37;3.90;99.90
8792;DHT22;4432;50.890;4.744;2022-09-30T05:09:06;3.90;99.90
8792;DHT22;4432;50.890;4.744;2022-09-30T05:11:31;3.90;99.90
8792;DHT22;4432;50.890;4.744;2022-09-30T05:13:57;3.90;99.90
8792;DHT22;4432;50.890;4.744;2022-09-30T05:16:23;3.90;99.90
8792;DHT22;4432;50.890;4.744;2022-09-30T05:18:49;3.90;99.90
8792;DHT22;4432;50.890;4.744;2022-09-30T05:21:17;3.90;99.90
8792;DHT22;4432;50.890;4.744;2022-09-30T05:23:44;3.90;99.90
8792;DHT22;4432;50.890;4.744;2022-09-30T05:26:09;3.80;99.90
8792;DHT22;4432;50.890;4.744;2022-09-30T05:28:35;3.80;99.90
8792;DHT22;4432;50.890;4.744;2022-09-30T05:31:03;3.80;99.90
8792;DHT22;4432;50.890;4.744;2022-09-30T05:33:31;3.80;99.90
8792;DHT22;4432;50.890;4.744;2022-09-30T05:36:01;3.80;99.90
8792;DHT22;4432;50.890;4.744;2022-09-30T05:38:27;3.80;99.90
8792;DHT22;4432;50.890;4.744;2022-09-30T05:40:53;3.80;99.90
8792;DHT22;4432;50.890;4.744;2022-09-30T05:43:19;3.80;99.90
8792;DHT22;4432;50.890;4.744;2022-09-30T05:45:55;3.80;99.90
8792;DHT22;4432;50.890;4.744;2022-09-30T05:48:22;3.80;99.90
8792;DHT22;4432;50.890;4.744;2022-09-30T05:50:56;3.90;99.90
8792;DHT22;4432;50.890;4.744;2022-09-30T05:53:23;3.90;99.90
8792;DHT22;4432;50.890;4.744;2022-09-30T05:55:49;3.90;99.90
8792;DHT22;4432;50.890;4.744;2022-09-30T05:58:16;3.90;99.90
8792;DHT22;4432;50.890;4.744;2022-09-30T06:00:43;3.90;99.90
8792;DHT22;4432;50.890;4.744;2022-09-30T06:03:09;4.00;99.90
8792;DHT22;4432;50.890;4.744;2022-09-30T06:05:36;4.00;99.90
8792;DHT22;4432;50.890;4.744;2022-09-30T06:08:02;4.10;99.90
8792;DHT22;4432;50.890;4.744;2022-09-30T06:10:29;4.10;99.90
8792;DHT22;4432;50.890;4.744;2022-09-30T06:12:55;4.20;99.90
8792;DHT22;4432;50.890;4.744;2022-09-30T06:15:24;4.30;99.90
8792;DHT22;4432;50.890;4.744;2022-09-30T06:17:53;4.50;99.90
8792;DHT22;4432;50.890;4.744;2022-09-30T06:20:19;4.70;99.90
8792;DHT22;4432;50.890;4.744;2022-09-30T06:22:45;4.90;99.90
8792;DHT22;4432;50.890;4.744;2022-09-30T06:25:11;5.10;99.90
8792;DHT22;4432;50.890;4.744;2022-09-30T06:27:36;5.40;99.90
8792;DHT22;4432;50.890;4.744;2022-09-30T06:30:07;5.80;99.90
8792;DHT22;4432;50.890;4.744;2022-09-30T06:32:33;6.30;99.90
8792;DHT22;4432;50.890;4.744;2022-09-30T06:34:58;6.40;99.90
8792;DHT22;4432;50.890;4.744;2022-09-30T06:37:24;6.30;99.90
8792;DHT22;4432;50.890;4.744;2022-09-30T06:39:50;6.30;99.90
8792;DHT22;4432;50.890;4.744;2022-09-30T06:42:17;6.20;99.90
8792;DHT22;4432;50.890;4.744;2022-09-30T06:44:44;6.20;99.90
8792;DHT22;4432;50.890;4.744;2022-09-30T06:47:12;6.40;99.90
8792;DHT22;4432;50.890;4.744;2022-09-30T06:49:38;7.20;99.90
8792;DHT22;4432;50.890;4.744;2022-09-30T06:52:05;8.20;99.90
8792;DHT22;4432;50.890;4.744;2022-09-30T06:54:30;8.90;99.90
8792;DHT22;4432;50.890;4.744;2022-09-30T06:56:56;9.60;99.90
8792;DHT22;4432;50.890;4.744;2022-09-30T06:59:25;10.20;99.90
8792;DHT22;4432;50.890;4.744;2022-09-30T07:01:51;10.70;99.90
8792;DHT22;4432;50.890;4.744;2022-09-30T07:04:17;10.90;99.90
8792;DHT22;4432;50.890;4.744;2022-09-30T07:06:43;10.70;99.90
8792;DHT22;4432;50.890;4.744;2022-09-30T07:09:10;10.40;99.90
8792;DHT22;4432;50.890;4.744;2022-09-30T07:11:37;10.00;99.90
8792;DHT22;4432;50.890;4.744;2022-09-30T07:14:04;9.80;99.90
8792;DHT22;4432;50.890;4.744;2022-09-30T07:16:30;9.60;99.90
8792;DHT22;4432;50.890;4.744;2022-09-30T07:18:57;9.50;99.90
8792;DHT22;4432;50.890;4.744;2022-09-30T07:21:24;9.50;99.90
8792;DHT22;4432;50.890;4.744;2022-09-30T07:23:50;9.50;99.90
8792;DHT22;4432;50.890;4.744;2022-09-30T07:26:20;9.60;99.90
8792;DHT22;4432;50.890;4.744;2022-09-30T07:28:47;9.80;99.90
8792;DHT22;4432;50.890;4.744;2022-09-30T07:31:16;10.00;99.90
8792;DHT22;4432;50.890;4.744;2022-09-30T07:33:42;10.30;99.90
8792;DHT22;4432;50.890;4.744;2022-09-30T07:36:09;10.40;99.90
8792;DHT22;4432;50.890;4.744;2022-09-30T07:38:40;10.60;99.90
8792;DHT22;4432;50.890;4.744;2022-09-30T07:41:09;10.70;99.90
8792;DHT22;4432;50.890;4.744;2022-09-30T07:43:36;10.70;99.90
8792;DHT22;4432;50.890;4.744;2022-09-30T07:46:15;10.80;99.90
8792;DHT22;4432;50.890;4.744;2022-09-30T07:48:43;10.80;99.90
8792;DHT22;4432;50.890;4.744;2022-09-30T07:51:24;11.00;99.90
8792;DHT22;4432;50.890;4.744;2022-09-30T07:53:54;11.00;99.90
8792;DHT22;4432;50.890;4.744;2022-09-30T07:56:22;11.10;99.90
8792;DHT22;4432;50.890;4.744;2022-09-30T07:58:52;11.10;99.90
8792;DHT22;4432;50.890;4.744;2022-09-30T08:01:18;11.30;99.90
8792;DHT22;4432;50.890;4.744;2022-09-30T08:03:44;11.40;99.90
8792;DHT22;4432;50.890;4.744;2022-09-30T08:06:15;11.40;99.90
8792;DHT22;4432;50.890;4.744;2022-09-30T08:08:42;11.50;99.90
8792;DHT22;4432;50.890;4.744;2022-09-30T08:11:09;11.70;99.90
8792;DHT22;4432;50.890;4.744;2022-09-30T08:13:36;11.90;99.90
8792;DHT22;4432;50.890;4.744;2022-09-30T08:16:02;11.80;99.90
8792;DHT22;4432;50.890;4.744;2022-09-30T08:18:29;12.00;99.90
8792;DHT22;4432;50.890;4.744;2022-09-30T08:20:55;12.00;99.90
8792;DHT22;4432;50.890;4.744;2022-09-30T08:23:20;12.30;99.90
8792;DHT22;4432;50.890;4.744;2022-09-30T08:25:46;12.50;99.90
8792;DHT22;4432;50.890;4.744;2022-09-30T08:28:13;12.70;99.90
8792;DHT22;4432;50.890;4.744;2022-09-30T08:30:39;12.90;99.90
8792;DHT22;4432;50.890;4.744;2022-09-30T08:33:05;13.00;99.90
8792;DHT22;4432;50.890;4.744;2022-09-30T08:35:33;13.10;99.90
8792;DHT22;4432;50.890;4.744;2022-09-30T08:37:59;13.60;99.90
8792;DHT22;4432;50.890;4.744;2022-09-30T08:40:26;13.80;99.90
8792;DHT22;4432;50.890;4.744;2022-09-30T08:43:20;13.80;99.90
8792;DHT22;4432;50.890;4.744;2022-09-30T08:48:41;14.30;99.90
8792;DHT22;4432;50.890;4.744;2022-09-30T08:51:28;14.90;99.90
8792;DHT22;4432;50.890;4.744;2022-09-30T08:53:58;15.40;99.90
8792;DHT22;4432;50.890;4.744;2022-09-30T08:56:31;15.20;99.90
8792;DHT22;4432;50.890;4.744;2022-09-30T08:59:04;15.20;99.90
8792;DHT22;4432;50.890;4.744;2022-09-30T09:01:34;15.30;99.90
8792;DHT22;4432;50.890;4.744;2022-09-30T09:04:02;15.70;99.90
8792;DHT22;4432;50.890;4.744;2022-09-30T09:06:53;16.20;99.90
8792;DHT22;4432;50.890;4.744;2022-09-30T09:20:57;16.00;99.90
8792;DHT22;4432;50.890;4.744;2022-09-30T09:23:25;16.20;99.90
8792;DHT22;4432;50.890;4.744;2022-09-30T09:25:52;16.30;99.90
8792;DHT22;4432;50.890;4.744;2022-09-30T09:28:36;16.00;99.90
8792;DHT22;4432;50.890;4.744;2022-09-30T09:31:07;16.20;99.90
8792;DHT22;4432;50.890;4.744;2022-09-30T09:33:38;16.40;99.90
8792;DHT22;4432;50.890;4.744;2022-09-30T09:47:01;16.20;99.90
8792;DHT22;4432;50.890;4.744;2022-09-30T09:49:41;16.20;99.90
8792;DHT22;4432;50.890;4.744;2022-09-30T09:54:45;16.30;99.90
8792;DHT22;4432;50.890;4.744;2022-09-30T09:57:14;16.30;99.90
8792;DHT22;4432;50.890;4.744;2022-09-30T10:00:11;16.40;99.90
8792;DHT22;4432;50.890;4.744;2022-09-30T10:03:04;16.20;99.90
8792;DHT22;4432;50.890;4.744;2022-09-30T10:05:33;16.50;99.90
8792;DHT22;4432;50.890;4.744;2022-09-30T10:08:21;16.70;99.90
8792;DHT22;4432;50.890;4.744;2022-09-30T10:10:53;16.70;99.90
8792;DHT22;4432;50.890;4.744;2022-09-30T10:13:45;16.50;99.90
8792;DHT22;4432;50.890;4.744;2022-09-30T10:16:34;16.70;99.90
8792;DHT22;4432;50.890;4.744;2022-09-30T10:19:16;17.00;99.90
8792;DHT22;4432;50.890;4.744;2022-09-30T10:21:42;17.10;99.90
8792;DHT22;4432;50.890;4.744;2022-09-30T10:24:28;17.20;99.90
8792;DHT22;4432;50.890;4.744;2022-09-30T10:26:54;17.20;99.90
8792;DHT22;4432;50.890;4.744;2022-09-30T10:29:31;17.40;99.90
8792;DHT22;4432;50.890;4.744;2022-09-30T10:32:08;17.40;99.90
8792;DHT22;4432;50.890;4.744;2022-09-30T10:34:36;17.40;99.90
8792;DHT22;4432;50.890;4.744;2022-09-30T10:37:19;17.40;99.90
8792;DHT22;4432;50.890;4.744;2022-09-30T10:40:05;17.40;99.90
8792;DHT22;4432;50.890;4.744;2022-09-30T10:42:35;17.60;99.90
8792;DHT22;4432;50.890;4.744;2022-09-30T10:45:21;17.60;99.90
8792;DHT22;4432;50.890;4.744;2022-09-30T10:47:51;17.70;99.90
8792;DHT22;4432;50.890;4.744;2022-09-30T10:50:20;17.80;99.90
8792;DHT22;4432;50.890;4.744;2022-09-30T10:52:54;17.60;99.90
8792;DHT22;4432;50.890;4.744;2022-09-30T10:57:51;18.10;99.90
8792;DHT22;4432;50.890;4.744;2022-09-30T11:00:20;18.40;99.90
8792;DHT22;4432;50.890;4.744;2022-09-30T11:10:41;18.50;99.90
8792;DHT22;4432;50.890;4.744;2022-09-30T11:24:51;17.50;99.90
8792;DHT22;4432;50.890;4.744;2022-09-30T11:36:07;18.00;99.90
8792;DHT22;4432;50.890;4.744;2022-09-30T11:41:51;18.10;99.90
8792;DHT22;4432;50.890;4.744;2022-09-30T11:44:34;18.00;99.90
8792;DHT22;4432;50.890;4.744;2022-09-30T11:50:15;18.50;99.90
8792;DHT22;4432;50.890;4.744;2022-09-30T11:52:50;18.50;99.90
8792;DHT22;4432;50.890;4.744;2022-09-30T11:57:58;19.00;99.90
8792;DHT22;4432;50.890;4.744;2022-09-30T12:00:25;18.90;99.90
8792;DHT22;4432;50.890;4.744;2022-09-30T12:03:00;18.40;99.90
8792;DHT22;4432;50.890;4.744;2022-09-30T12:05:36;18.60;99.90
8792;DHT22;4432;50.890;4.744;2022-09-30T12:08:16;19.00;99.90
8792;DHT22;4432;50.890;4.744;2022-09-30T12:10:50;19.40;99.90
8792;DHT22;4432;50.890;4.744;2022-09-30T12:13:25;19.20;99.90
8792;DHT22;4432;50.890;4.744;2022-09-30T12:15:56;19.00;99.90
8792;DHT22;4432;50.890;4.744;2022-09-30T12:18:26;18.80;99.90
8792;DHT22;4432;50.890;4.744;2022-09-30T12:20:56;19.00;99.90
8792;DHT22;4432;50.890;4.744;2022-09-30T12:23:26;18.90;99.90
8792;DHT22;4432;50.890;4.744;2022-09-30T12:25:56;18.50;99.90
8792;DHT22;4432;50.890;4.744;2022-09-30T12:28:32;18.50;99.90
8792;DHT22;4432;50.890;4.744;2022-09-30T12:32:50;18.60;99.90
8792;DHT22;4432;50.890;4.744;2022-09-30T12:41:00;17.90;99.90
8792;DHT22;4432;50.890;4.744;2022-09-30T12:46:38;18.10;99.90
8792;DHT22;4432;50.890;4.744;2022-09-30T12:49:09;18.60;99.90
8792;DHT22;4432;50.890;4.744;2022-09-30T12:51:41;18.90;99.90
8792;DHT22;4432;50.890;4.744;2022-09-30T12:54:20;18.80;99.90
8792;DHT22;4432;50.890;4.744;2022-09-30T12:56:57;18.40;99.90
8792;DHT22;4432;50.890;4.744;2022-09-30T12:59:44;18.50;99.90
8792;DHT22;4432;50.890;4.744;2022-09-30T13:02:27;18.70;99.90
8792;DHT22;4432;50.890;4.744;2022-09-30T13:23:54;17.60;99.90
8792;DHT22;4432;50.890;4.744;2022-09-30T13:34:23;17.70;99.90
8792;DHT22;4432;50.890;4.744;2022-09-30T13:39:24;17.50;99.90
8792;DHT22;4432;50.890;4.744;2022-09-30T13:42:13;17.70;99.90
8792;DHT22;4432;50.890;4.744;2022-09-30T13:45:12;17.60;99.90
8792;DHT22;4432;50.890;4.744;2022-09-30T13:50:27;18.10;99.90
8792;DHT22;4432;50.890;4.744;2022-09-30T13:53:00;18.20;99.90
8792;DHT22;4432;50.890;4.744;2022-09-30T13:55:45;18.40;99.90
8792;DHT22;4432;50.890;4.744;2022-09-30T14:03:38;17.90;99.90
8792;DHT22;4432;50.890;4.744;2022-09-30T14:14:40;18.20;99.90
8792;DHT22;4432;50.890;4.744;2022-09-30T14:17:22;18.10;99.90
8792;DHT22;4432;50.890;4.744;2022-09-30T14:22:25;17.90;99.90
8792;DHT22;4432;50.890;4.744;2022-09-30T14:24:51;18.10;99.90
8792;DHT22;4432;50.890;4.744;2022-09-30T14:32:52;18.10;99.90
8792;DHT22;4432;50.890;4.744;2022-09-30T14:35:21;18.00;99.90
8792;DHT22;4432;50.890;4.744;2022-09-30T14:37:51;17.80;99.90
8792;DHT22;4432;50.890;4.744;2022-09-30T14:40:27;17.90;99.90
8792;DHT22;4432;50.890;4.744;2022-09-30T14:42:58;17.80;99.90
8792;DHT22;4432;50.890;4.744;2022-09-30T14:45:32;17.80;99.90
8792;DHT22;4432;50.890;4.744;2022-09-30T14:48:13;17.80;99.90
8792;DHT22;4432;50.890;4.744;2022-09-30T14:51:09;17.80;99.90
8792;DHT22;4432;50.890;4.744;2022-09-30T14:53:39;17.80;99.90
8792;DHT22;4432;50.890;4.744;2022-09-30T14:56:20;17.70;99.90
8792;DHT22;4432;50.890;4.744;2022-09-30T14:58:48;17.70;99.90
8792;DHT22;4432;50.890;4.744;2022-09-30T15:01:18;17.40;99.90
8792;DHT22;4432;50.890;4.744;2022-09-30T15:03:53;17.20;99.90
8792;DHT22;4432;50.890;4.744;2022-09-30T15:06:30;17.20;99.90
8792;DHT22;4432;50.890;4.744;2022-09-30T15:09:05;17.20;99.90
8792;DHT22;4432;50.890;4.744;2022-09-30T15:11:33;17.10;99.90
8792;DHT22;4432;50.890;4.744;2022-09-30T15:16:47;17.00;99.90
8792;DHT22;4432;50.890;4.744;2022-09-30T15:19:22;16.90;99.90
8792;DHT22;4432;50.890;4.744;2022-09-30T15:21:50;16.90;99.90
8792;DHT22;4432;50.890;4.744;2022-09-30T15:24:18;16.90;99.90
8792;DHT22;4432;50.890;4.744;2022-09-30T15:26:46;17.00;99.90
8792;DHT22;4432;50.890;4.744;2022-09-30T15:29:14;16.90;99.90
8792;DHT22;4432;50.890;4.744;2022-09-30T15:32:02;17.00;99.90
8792;DHT22;4432;50.890;4.744;2022-09-30T15:34:29;17.00;99.90
8792;DHT22;4432;50.890;4.744;2022-09-30T15:37:04;16.90;99.90
8792;DHT22;4432;50.890;4.744;2022-09-30T15:39:39;16.90;99.90
8792;DHT22;4432;50.890;4.744;2022-09-30T15:42:37;16.80;99.90
8792;DHT22;4432;50.890;4.744;2022-09-30T15:47:55;16.80;99.90
8792;DHT22;4432;50.890;4.744;2022-09-30T15:50:41;16.60;99.90
8792;DHT22;4432;50.890;4.744;2022-09-30T15:53:22;16.40;99.90
8792;DHT22;4432;50.890;4.744;2022-09-30T15:55:50;16.30;99.90
8792;DHT22;4432;50.890;4.744;2022-09-30T16:01:38;16.30;99.90
8792;DHT22;4432;50.890;4.744;2022-09-30T16:03:45;16.30;99.90
8792;DHT22;4432;50.890;4.744;2022-09-30T16:06:12;16.30;99.90
8792;DHT22;4432;50.890;4.744;2022-09-30T16:08:44;16.30;99.90
8792;DHT22;4432;50.890;4.744;2022-09-30T16:11:24;16.20;99.90
8792;DHT22;4432;50.890;4.744;2022-09-30T16:13:51;16.10;99.90
8792;DHT22;4432;50.890;4.744;2022-09-30T16:16:24;16.00;99.90
8792;DHT22;4432;50.890;4.744;2022-09-30T16:18:52;15.90;99.90
8792;DHT22;4432;50.890;4.744;2022-09-30T16:21:38;15.80;99.90
8792;DHT22;4432;50.890;4.744;2022-09-30T16:29:37;15.40;99.90
8792;DHT22;4432;50.890;4.744;2022-09-30T16:32:03;15.40;99.90
8792;DHT22;4432;50.890;4.744;2022-09-30T16:34:32;15.30;99.90
8792;DHT22;4432;50.890;4.744;2022-09-30T16:37:18;15.20;99.90
8792;DHT22;4432;50.890;4.744;2022-09-30T16:39:45;15.20;99.90
8792;DHT22;4432;50.890;4.744;2022-09-30T16:42:13;15.20;99.90
8792;DHT22;4432;50.890;4.744;2022-09-30T16:44:40;15.20;99.90
8792;DHT22;4432;50.890;4.744;2022-09-30T16:47:16;15.10;99.90
8792;DHT22;4432;50.890;4.744;2022-09-30T16:49:44;15.10;99.90
8792;DHT22;4432;50.890;4.744;2022-09-30T16:52:10;15.10;99.90
8792;DHT22;4432;50.890;4.744;2022-09-30T16:54:36;15.00;99.90
8792;DHT22;4432;50.890;4.744;2022-09-30T16:57:02;14.90;99.90
8792;DHT22;4432;50.890;4.744;2022-09-30T16:59:28;14.80;99.90
8792;DHT22;4432;50.890;4.744;2022-09-30T17:01:57;14.80;99.90
8792;DHT22;4432;50.890;4.744;2022-09-30T17:04:25;14.70;99.90
8792;DHT22;4432;50.890;4.744;2022-09-30T17:06:51;14.60;99.90
8792;DHT22;4432;50.890;4.744;2022-09-30T17:09:18;14.50;99.90
8792;DHT22;4432;50.890;4.744;2022-09-30T17:11:44;14.50;99.90
8792;DHT22;4432;50.890;4.744;2022-09-30T17:14:10;14.50;99.90
8792;DHT22;4432;50.890;4.744;2022-09-30T17:16:35;14.40;99.90
8792;DHT22;4432;50.890;4.744;2022-09-30T17:19:02;14.50;99.90
8792;DHT22;4432;50.890;4.744;2022-09-30T17:21:29;14.50;99.90
8792;DHT22;4432;50.890;4.744;2022-09-30T17:23:55;14.40;99.90
8792;DHT22;4432;50.890;4.744;2022-09-30T17:26:21;14.40;99.90
8792;DHT22;4432;50.890;4.744;2022-09-30T17:28:47;14.50;99.90
8792;DHT22;4432;50.890;4.744;2022-09-30T17:31:13;14.40;99.90
8792;DHT22;4432;50.890;4.744;2022-09-30T17:33:40;14.30;99.90
8792;DHT22;4432;50.890;4.744;2022-09-30T17:36:09;14.30;99.90
8792;DHT22;4432;50.890;4.744;2022-09-30T17:38:35;14.20;99.90
8792;DHT22;4432;50.890;4.744;2022-09-30T17:41:02;14.20;99.90
8792;DHT22;4432;50.890;4.744;2022-09-30T17:43:46;14.10;99.90
8792;DHT22;4432;50.890;4.744;2022-09-30T17:46:13;14.00;99.90
8792;DHT22;4432;50.890;4.744;2022-09-30T17:48:44;13.90;99.90
8792;DHT22;4432;50.890;4.744;2022-09-30T17:51:11;13.80;99.90
8792;DHT22;4432;50.890;4.744;2022-09-30T17:53:37;13.90;99.90
8792;DHT22;4432;50.890;4.744;2022-09-30T17:56:05;13.70;99.90
8792;DHT22;4432;50.890;4.744;2022-09-30T17:58:35;13.70;99.90
8792;DHT22;4432;50.890;4.744;2022-09-30T18:01:05;13.60;99.90
8792;DHT22;4432;50.890;4.744;2022-09-30T18:03:32;13.60;99.90
8792;DHT22;4432;50.890;4.744;2022-09-30T18:05:58;13.50;99.90
8792;DHT22;4432;50.890;4.744;2022-09-30T18:08:25;13.50;99.90
8792;DHT22;4432;50.890;4.744;2022-09-30T18:10:51;13.40;99.90
8792;DHT22;4432;50.890;4.744;2022-09-30T18:13:17;13.40;99.90
8792;DHT22;4432;50.890;4.744;2022-09-30T18:15:44;13.40;99.90
8792;DHT22;4432;50.890;4.744;2022-09-30T18:18:11;13.30;99.90
8792;DHT22;4432;50.890;4.744;2022-09-30T18:20:48;13.30;99.90
8792;DHT22;4432;50.890;4.744;2022-09-30T18:23:16;13.30;99.90
8792;DHT22;4432;50.890;4.744;2022-09-30T18:25:47;13.30;99.90
8792;DHT22;4432;50.890;4.744;2022-09-30T18:28:14;13.30;99.90
8792;DHT22;4432;50.890;4.744;2022-09-30T18:30:40;13.30;99.90
8792;DHT22;4432;50.890;4.744;2022-09-30T18:33:07;13.30;99.90
8792;DHT22;4432;50.890;4.744;2022-09-30T18:35:36;13.30;99.90
8792;DHT22;4432;50.890;4.744;2022-09-30T18:38:02;13.40;99.90
8792;DHT22;4432;50.890;4.744;2022-09-30T18:40:29;13.40;99.90
8792;DHT22;4432;50.890;4.744;2022-09-30T18:42:58;13.40;99.90
8792;DHT22;4432;50.890;4.744;2022-09-30T18:45:33;13.40;99.90
8792;DHT22;4432;50.890;4.744;2022-09-30T18:48:08;13.40;99.90
8792;DHT22;4432;50.890;4.744;2022-09-30T18:50:34;13.40;99.90
8792;DHT22;4432;50.890;4.744;2022-09-30T18:53:00;13.40;99.90
8792;DHT22;4432;50.890;4.744;2022-09-30T18:55:30;13.40;99.90
8792;DHT22;4432;50.890;4.744;2022-09-30T18:57:56;13.50;99.90
8792;DHT22;4432;50.890;4.744;2022-09-30T19:00:22;13.50;99.90
8792;DHT22;4432;50.890;4.744;2022-09-30T19:02:50;13.40;99.90
8792;DHT22;4432;50.890;4.744;2022-09-30T19:05:16;13.50;99.90
8792;DHT22;4432;50.890;4.744;2022-09-30T19:07:42;13.40;99.90
8792;DHT22;4432;50.890;4.744;2022-09-30T19:10:09;13.50;99.90
8792;DHT22;4432;50.890;4.744;2022-09-30T19:12:37;13.50;99.90
8792;DHT22;4432;50.890;4.744;2022-09-30T19:15:05;13.50;99.90
8792;DHT22;4432;50.890;4.744;2022-09-30T19:17:31;13.50;99.90
8792;DHT22;4432;50.890;4.744;2022-09-30T19:19:58;13.50;99.90
8792;DHT22;4432;50.890;4.744;2022-09-30T19:22:26;13.60;99.90
8792;DHT22;4432;50.890;4.744;2022-09-30T19:24:52;13.60;99.90
8792;DHT22;4432;50.890;4.744;2022-09-30T19:27:18;13.70;99.90
8792;DHT22;4432;50.890;4.744;2022-09-30T19:29:46;13.70;99.90
8792;DHT22;4432;50.890;4.744;2022-09-30T19:32:13;13.70;99.90
8792;DHT22;4432;50.890;4.744;2022-09-30T19:34:39;13.70;99.90
8792;DHT22;4432;50.890;4.744;2022-09-30T19:37:06;13.70;99.90
8792;DHT22;4432;50.890;4.744;2022-09-30T19:39:32;13.70;99.90
8792;DHT22;4432;50.890;4.744;2022-09-30T19:41:58;13.70;99.90
8792;DHT22;4432;50.890;4.744;2022-09-30T19:44:24;13.70;99.90
8792;DHT22;4432;50.890;4.744;2022-09-30T19:46:50;13.70;99.90
8792;DHT22;4432;50.890;4.744;2022-09-30T19:49:17;13.60;99.90
8792;DHT22;4432;50.890;4.744;2022-09-30T19:51:43;13.60;99.90
8792;DHT22;4432;50.890;4.744;2022-09-30T19:54:08;13.60;99.90
8792;DHT22;4432;50.890;4.744;2022-09-30T19:56:35;13.60;99.90